createdAt,value
2018-09-28T00:00:59.245Z,2.30
2018-09-28T00:02:01.864Z,1.87
2018-09-28T00:03:04.471Z,1.17
2018-09-28T00:04:07.072Z,1.07
2018-09-28T00:05:09.703Z,1.20
2018-09-28T00:06:12.301Z,1.03
2018-09-28T00:07:14.873Z,0.70
2018-09-28T00:08:17.483Z,0.47
2018-09-28T00:09:20.079Z,1.60
2018-09-28T00:10:22.683Z,0.70
2018-09-28T00:11:25.273Z,0.83
2018-09-28T00:12:27.851Z,1.63
2018-09-28T00:13:30.529Z,1.40
2018-09-28T00:14:33.135Z,1.53
2018-09-28T00:15:35.727Z,1.80
2018-09-28T00:16:38.340Z,1.07
2018-09-28T00:17:40.919Z,1.70
2018-09-28T00:18:43.621Z,0.50
2018-09-28T00:19:46.223Z,1.17
2018-09-28T00:20:48.840Z,0.73
2018-09-28T00:21:51.431Z,0.77
2018-09-28T00:22:54.054Z,1.40
2018-09-28T00:23:56.748Z,3.00
2018-09-28T00:24:59.321Z,1.40
2018-09-28T00:26:01.968Z,1.27
2018-09-28T00:27:04.549Z,1.00
2018-09-28T00:28:07.158Z,1.27
2018-09-28T00:29:09.833Z,1.43
2018-09-28T00:30:12.409Z,0.83
2018-09-28T00:31:15.015Z,1.30
2018-09-28T00:32:17.593Z,1.27
2018-09-28T00:33:20.165Z,0.73
2018-09-28T00:34:22.733Z,1.43
2018-09-28T00:35:25.309Z,1.10
2018-09-28T00:36:27.897Z,2.40
2018-09-28T00:37:30.485Z,1.40
2018-09-28T00:38:33.100Z,1.90
2018-09-28T00:39:35.788Z,1.53
2018-09-28T00:40:38.366Z,0.90
2018-09-28T00:41:40.967Z,0.90
2018-09-28T00:42:43.540Z,2.77
2018-09-28T00:43:46.125Z,1.00
2018-09-28T00:44:48.713Z,1.07
2018-09-28T00:45:51.341Z,1.03
2018-09-28T00:46:53.917Z,1.37
2018-09-28T00:47:56.507Z,1.43
2018-09-28T00:48:59.107Z,0.50
2018-09-28T00:50:01.726Z,2.23
2018-09-28T00:51:04.361Z,1.17
2018-09-28T00:52:07.084Z,0.50
2018-09-28T00:53:09.669Z,1.43
2018-09-28T00:54:12.271Z,1.23
2018-09-28T00:55:14.866Z,0.70
2018-09-28T00:56:17.541Z,3.07
2018-09-28T00:57:20.122Z,1.10
2018-09-28T00:58:22.719Z,1.00
2018-09-28T00:59:25.285Z,0.80
2018-09-28T01:00:29.757Z,1.10
2018-09-28T01:01:32.337Z,0.70
2018-09-28T01:02:34.925Z,0.60
2018-09-28T01:03:37.559Z,0.60
2018-09-28T01:04:40.133Z,1.07
2018-09-28T01:05:42.701Z,0.60
2018-09-28T01:06:45.285Z,0.83
2018-09-28T01:07:47.865Z,0.63
2018-09-28T01:08:50.471Z,0.20
2018-09-28T01:09:53.059Z,0.67
2018-09-28T01:10:55.645Z,0.70
2018-09-28T01:11:58.249Z,0.73
2018-09-28T01:13:00.851Z,0.63
2018-09-28T01:14:03.438Z,0.60
2018-09-28T01:15:06.045Z,2.00
2018-09-28T01:16:08.659Z,1.17
2018-09-28T01:17:11.277Z,0.97
2018-09-28T01:18:13.859Z,0.90
2018-09-28T01:19:16.451Z,0.93
2018-09-28T01:20:19.041Z,0.97
2018-09-28T01:21:21.657Z,1.00
2018-09-28T01:22:24.250Z,1.43
2018-09-28T01:23:26.873Z,0.53
2018-09-28T01:24:29.763Z,1.00
2018-09-28T01:25:32.346Z,0.93
2018-09-28T01:26:34.935Z,0.90
2018-09-28T01:27:37.529Z,0.77
2018-09-28T01:28:40.089Z,0.30
2018-09-28T01:29:42.696Z,0.87
2018-09-28T01:30:45.341Z,0.53
2018-09-28T01:31:48.184Z,1.00
2018-09-28T01:32:50.773Z,0.40
2018-09-28T01:33:53.351Z,0.97
2018-09-28T01:34:55.921Z,0.60
2018-09-28T01:35:58.597Z,0.43
2018-09-28T01:37:01.199Z,0.70
2018-09-28T01:38:03.775Z,0.90
2018-09-28T01:39:06.965Z,1.23
2018-09-28T01:40:09.590Z,0.70
2018-09-28T01:41:12.182Z,0.90
2018-09-28T01:42:14.750Z,1.17
2018-09-28T01:43:17.331Z,0.80
2018-09-28T01:44:19.942Z,0.40
2018-09-28T01:45:22.517Z,0.43
2018-09-28T01:46:25.080Z,0.40
2018-09-28T01:47:27.657Z,0.93
2018-09-28T01:48:30.217Z,0.40
2018-09-28T01:49:32.820Z,0.70
2018-09-28T01:50:35.421Z,0.80
2018-09-28T01:51:38.031Z,0.93
2018-09-28T01:52:40.616Z,0.30
2018-09-28T01:53:43.219Z,0.70
2018-09-28T01:54:45.819Z,0.77
2018-09-28T01:55:48.396Z,0.60
2018-09-28T01:56:50.999Z,1.53
2018-09-28T01:57:53.629Z,0.77
2018-09-28T01:58:56.205Z,0.47
2018-09-28T01:59:58.787Z,0.33
2018-09-28T02:01:01.377Z,0.40
2018-09-28T02:02:04.048Z,0.57
2018-09-28T02:03:06.657Z,0.33
2018-09-28T02:04:09.319Z,0.50
2018-09-28T02:05:11.951Z,0.30
2018-09-28T02:06:14.547Z,0.53
2018-09-28T02:07:17.123Z,0.53
2018-09-28T02:08:19.715Z,0.80
2018-09-28T02:09:22.301Z,0.40
2018-09-28T02:10:24.905Z,0.50
2018-09-28T02:11:27.489Z,0.83
2018-09-28T02:12:30.173Z,0.40
2018-09-28T02:13:32.713Z,1.20
2018-09-28T02:14:35.322Z,0.50
2018-09-28T02:15:37.904Z,0.57
2018-09-28T02:16:40.493Z,0.63
2018-09-28T02:17:43.080Z,0.77
2018-09-28T02:18:45.703Z,0.80
2018-09-28T02:19:48.295Z,0.50
2018-09-28T02:20:50.889Z,0.97
2018-09-28T02:21:53.505Z,0.60
2018-09-28T02:22:56.181Z,0.60
2018-09-28T02:23:58.779Z,0.40
2018-09-28T02:25:01.357Z,0.60
2018-09-28T02:26:03.939Z,1.23
2018-09-28T02:27:06.767Z,0.40
2018-09-28T02:28:09.415Z,1.13
2018-09-28T02:29:11.989Z,0.43
2018-09-28T02:30:14.656Z,0.30
2018-09-28T02:31:17.246Z,1.70
2018-09-28T02:32:19.831Z,0.23
2018-09-28T02:33:22.522Z,0.30
2018-09-28T02:34:25.382Z,0.50
2018-09-28T02:35:28.004Z,0.30
2018-09-28T02:36:30.581Z,0.17
2018-09-28T02:37:33.178Z,0.30
2018-09-28T02:38:35.798Z,0.50
2018-09-28T02:39:38.390Z,0.23
2018-09-28T02:40:40.983Z,0.30
2018-09-28T02:41:43.576Z,0.70
2018-09-28T02:42:46.165Z,0.47
2018-09-28T02:43:48.765Z,0.93
2018-09-28T02:44:51.349Z,0.20
2018-09-28T02:45:53.938Z,0.87
2018-09-28T02:46:56.535Z,0.30
2018-09-28T02:47:59.136Z,0.40
2018-09-28T02:49:02.171Z,1.20
2018-09-28T02:50:04.924Z,0.20
2018-09-28T02:51:07.537Z,1.63
2018-09-28T02:52:10.145Z,0.20
2018-09-28T02:53:16.970Z,0.70
2018-09-28T02:54:19.805Z,0.30
2018-09-28T02:55:22.379Z,0.20
2018-09-28T02:56:24.977Z,0.30
2018-09-28T02:57:27.557Z,0.30
2018-09-28T02:58:30.163Z,0.20
2018-09-28T02:59:32.741Z,0.20
2018-09-28T03:00:35.323Z,0.40
2018-09-28T03:01:37.935Z,0.20
2018-09-28T03:02:40.507Z,0.27
2018-09-28T03:03:43.111Z,0.70
2018-09-28T03:04:45.941Z,0.37
2018-09-28T03:05:48.580Z,0.20
2018-09-28T03:06:51.237Z,0.40
2018-09-28T03:07:53.821Z,0.67
2018-09-28T03:08:56.423Z,0.23
2018-09-28T03:09:58.997Z,0.27
2018-09-28T03:11:01.585Z,0.43
2018-09-28T03:12:04.187Z,0.30
2018-09-28T03:13:07.223Z,0.33
2018-09-28T03:14:09.809Z,1.40
2018-09-28T03:15:12.420Z,0.90
2018-09-28T03:16:15.012Z,0.40
2018-09-28T03:17:17.629Z,1.37
2018-09-28T03:18:20.227Z,0.20
2018-09-28T03:19:23.201Z,0.63
2018-09-28T03:20:25.765Z,0.57
2018-09-28T03:21:28.847Z,1.07
2018-09-28T03:22:31.433Z,0.20
2018-09-28T03:23:34.022Z,0.57
2018-09-28T03:24:36.587Z,0.20
2018-09-28T03:25:39.158Z,1.43
2018-09-28T03:26:41.708Z,0.63
2018-09-28T03:27:44.284Z,0.70
2018-09-28T03:28:46.854Z,0.63
2018-09-28T03:29:49.426Z,0.83
2018-09-28T03:30:51.998Z,0.37
2018-09-28T03:31:54.558Z,0.20
2018-09-28T03:32:57.117Z,0.30
2018-09-28T03:33:59.686Z,0.57
2018-09-28T03:35:02.282Z,0.47
2018-09-28T03:36:04.918Z,0.30
2018-09-28T03:37:07.490Z,0.40
2018-09-28T03:38:10.041Z,0.90
2018-09-28T03:39:12.635Z,0.40
2018-09-28T03:40:15.194Z,0.30
2018-09-28T03:41:17.778Z,0.30
2018-09-28T03:42:20.375Z,0.30
2018-09-28T03:43:22.943Z,0.60
2018-09-28T03:44:25.494Z,0.40
2018-09-28T03:45:28.051Z,0.30
2018-09-28T03:46:30.630Z,0.17
2018-09-28T03:47:33.362Z,0.30
2018-09-28T03:48:35.922Z,1.27
2018-09-28T03:49:38.503Z,0.30
2018-09-28T03:50:41.075Z,0.60
2018-09-28T03:51:43.638Z,0.10
2018-09-28T03:52:46.243Z,0.40
2018-09-28T03:53:48.822Z,0.20
2018-09-28T03:54:51.429Z,0.40
2018-09-28T03:55:54.017Z,0.17
2018-09-28T03:56:56.587Z,0.90
2018-09-28T03:57:59.138Z,0.23
2018-09-28T03:59:01.734Z,0.40
2018-09-28T04:00:04.512Z,0.40
2018-09-28T04:01:07.118Z,0.40
2018-09-28T04:02:09.671Z,0.30
2018-09-28T04:03:12.303Z,0.60
2018-09-28T04:04:14.931Z,0.20
2018-09-28T04:05:17.503Z,0.50
2018-09-28T04:06:21.016Z,0.20
2018-09-28T04:07:23.598Z,0.30
2018-09-28T04:08:26.182Z,0.70
2018-09-28T04:09:28.748Z,0.50
2018-09-28T04:10:31.310Z,0.70
2018-09-28T04:11:33.890Z,0.30
2018-09-28T04:12:36.510Z,0.30
2018-09-28T04:13:39.077Z,1.80
2018-09-28T04:14:41.673Z,0.37
2018-09-28T04:15:44.238Z,0.50
2018-09-28T04:16:46.806Z,0.50
2018-09-28T04:17:49.362Z,0.30
2018-09-28T04:18:51.927Z,1.17
2018-09-28T04:19:54.492Z,0.80
2018-09-28T04:20:57.050Z,0.40
2018-09-28T04:22:00.895Z,0.53
2018-09-28T04:23:03.449Z,0.50
2018-09-28T04:24:06.133Z,0.57
2018-09-28T04:25:08.771Z,0.30
2018-09-28T04:26:11.337Z,0.30
2018-09-28T04:27:13.910Z,0.57
2018-09-28T04:28:16.526Z,0.40
2018-09-28T04:29:19.086Z,0.30
2018-09-28T04:30:21.642Z,0.33
2018-09-28T04:31:24.212Z,0.30
2018-09-28T04:32:26.790Z,0.30
2018-09-28T04:33:29.366Z,0.37
2018-09-28T04:34:31.922Z,0.67
2018-09-28T04:35:34.486Z,0.20
2018-09-28T04:36:37.062Z,0.10
2018-09-28T04:37:39.622Z,0.83
2018-09-28T04:38:42.195Z,0.47
2018-09-28T04:39:44.802Z,0.30
2018-09-28T04:40:47.366Z,0.40
2018-09-28T04:41:49.937Z,0.27
2018-09-28T04:42:52.494Z,0.63
2018-09-28T04:43:55.062Z,0.63
2018-09-28T04:44:57.646Z,0.47
2018-09-28T04:46:00.193Z,0.40
2018-09-28T04:47:02.746Z,0.50
2018-09-28T04:48:05.393Z,0.67
2018-09-28T04:49:07.963Z,0.30
2018-09-28T04:50:10.558Z,0.60
2018-09-28T04:51:13.139Z,0.57
2018-09-28T04:52:15.686Z,0.50
2018-09-28T04:53:18.261Z,0.40
2018-09-28T04:54:20.814Z,0.53
2018-09-28T04:55:23.373Z,0.27
2018-09-28T04:56:25.962Z,0.40
2018-09-28T04:57:28.551Z,0.77
2018-09-28T04:58:31.094Z,0.40
2018-09-28T04:59:33.666Z,0.70
2018-09-28T05:00:36.235Z,0.30
2018-09-28T05:01:38.846Z,0.37
2018-09-28T05:02:41.406Z,1.80
2018-09-28T05:03:43.954Z,0.30
2018-09-28T05:04:46.543Z,0.40
2018-09-28T05:05:49.130Z,0.40
2018-09-28T05:06:51.696Z,0.30
2018-09-28T05:07:54.321Z,0.57
2018-09-28T05:08:56.871Z,0.33
2018-09-28T05:09:59.442Z,0.87
2018-09-28T05:11:02.039Z,0.30
2018-09-28T05:12:04.598Z,0.30
2018-09-28T05:13:07.230Z,0.83
2018-09-28T05:14:10.166Z,0.20
2018-09-28T05:15:12.821Z,0.73
2018-09-28T05:16:15.382Z,0.93
2018-09-28T05:17:17.967Z,0.83
2018-09-28T05:18:20.522Z,0.50
2018-09-28T05:19:23.125Z,0.43
2018-09-28T05:20:25.670Z,0.37
2018-09-28T05:21:28.325Z,0.90
2018-09-28T05:22:30.922Z,0.47
2018-09-28T05:23:33.511Z,0.33
2018-09-28T05:24:36.085Z,0.40
2018-09-28T05:25:38.662Z,1.33
2018-09-28T05:26:41.318Z,0.40
2018-09-28T05:27:43.884Z,0.33
2018-09-28T05:28:46.443Z,1.50
2018-09-28T05:29:49.016Z,0.80
2018-09-28T05:30:53.962Z,1.20
2018-09-28T05:31:54.463Z,0.43
2018-09-28T05:32:57.102Z,1.03
2018-09-28T05:33:59.501Z,0.50
2018-09-28T05:35:02.106Z,2.20
2018-09-28T05:36:04.746Z,0.73
2018-09-28T05:37:07.488Z,0.60
2018-09-28T05:38:10.053Z,0.40
2018-09-28T05:39:12.626Z,1.50
2018-09-28T05:40:15.226Z,1.10
2018-09-28T05:41:17.884Z,0.77
2018-09-28T05:42:20.542Z,0.67
2018-09-28T05:43:23.114Z,0.60
2018-09-28T05:44:25.651Z,0.90
2018-09-28T05:45:28.218Z,0.70
2018-09-28T05:46:30.779Z,0.40
2018-09-28T05:47:33.450Z,0.50
2018-09-28T05:48:36.018Z,0.70
2018-09-28T05:49:38.566Z,0.70
2018-09-28T05:50:41.131Z,2.00
2018-09-28T05:51:43.714Z,0.50
2018-09-28T05:52:46.267Z,0.53
2018-09-28T05:53:48.818Z,1.40
2018-09-28T05:54:51.385Z,1.20
2018-09-28T05:55:53.962Z,1.20
2018-09-28T05:56:56.534Z,1.17
2018-09-28T05:58:04.818Z,1.03
2018-09-28T05:59:12.918Z,0.83
2018-09-28T06:00:20.934Z,1.03
2018-09-28T06:01:29.035Z,1.00
2018-09-28T06:02:37.002Z,1.20
2018-09-28T06:03:45.138Z,0.43
2018-09-28T06:04:53.274Z,0.40
2018-09-28T06:05:59.490Z,0.73
2018-09-28T06:07:02.103Z,0.40
2018-09-28T06:08:04.730Z,0.70
2018-09-28T06:09:09.051Z,0.63
2018-09-28T06:10:11.630Z,2.20
2018-09-28T06:11:14.221Z,0.40
2018-09-28T06:12:17.033Z,0.53
2018-09-28T06:13:20.818Z,0.60
2018-09-28T06:14:23.502Z,0.40
2018-09-28T06:15:26.068Z,0.60
2018-09-28T06:16:28.673Z,0.40
2018-09-28T06:17:31.258Z,0.30
2018-09-28T06:18:33.861Z,1.07
2018-09-28T06:19:36.513Z,0.47
2018-09-28T06:20:39.098Z,0.50
2018-09-28T06:21:41.682Z,0.30
2018-09-28T06:22:44.256Z,0.30
2018-09-28T06:23:46.826Z,0.30
2018-09-28T06:24:49.482Z,0.50
2018-09-28T06:25:52.126Z,0.57
2018-09-28T06:26:54.682Z,0.30
2018-09-28T06:27:57.246Z,1.13
2018-09-28T06:28:59.810Z,0.30
2018-09-28T06:30:02.490Z,0.60
2018-09-28T06:31:05.090Z,0.90
2018-09-28T06:32:07.769Z,0.37
2018-09-28T06:33:10.354Z,0.43
2018-09-28T06:34:12.918Z,0.63
2018-09-28T06:35:15.587Z,0.47
2018-09-28T06:36:18.237Z,2.20
2018-09-28T06:37:20.785Z,0.33
2018-09-28T06:38:23.370Z,0.30
2018-09-28T06:39:25.956Z,1.03
2018-09-28T06:40:28.629Z,1.07
2018-09-28T06:41:31.194Z,3.20
2018-09-28T06:42:33.828Z,0.80
2018-09-28T06:43:36.401Z,0.33
2018-09-28T06:44:39.263Z,0.63
2018-09-28T06:45:41.927Z,0.87
2018-09-28T06:46:44.494Z,0.53
2018-09-28T06:47:47.141Z,0.20
2018-09-28T06:48:49.728Z,0.70
2018-09-28T06:49:52.298Z,0.47
2018-09-28T06:50:55.019Z,2.17
2018-09-28T06:51:57.614Z,0.17
2018-09-28T06:53:00.178Z,0.63
2018-09-28T06:54:02.819Z,0.93
2018-09-28T06:55:05.422Z,0.27
2018-09-28T06:56:08.064Z,0.50
2018-09-28T06:57:10.637Z,0.70
2018-09-28T06:58:13.284Z,0.43
2018-09-28T06:59:15.835Z,0.50
2018-09-28T07:00:18.428Z,0.50
2018-09-28T07:01:20.998Z,1.57
2018-09-28T07:02:23.555Z,0.30
2018-09-28T07:03:26.114Z,0.20
2018-09-28T07:04:28.706Z,0.20
2018-09-28T07:05:31.290Z,0.30
2018-09-28T07:06:33.850Z,0.50
2018-09-28T07:07:36.468Z,0.30
2018-09-28T07:08:39.030Z,0.53
2018-09-28T07:09:41.591Z,0.30
2018-09-28T07:10:44.170Z,0.30
2018-09-28T07:11:46.779Z,0.20
2018-09-28T07:12:49.351Z,0.20
2018-09-28T07:13:52.266Z,2.63
2018-09-28T07:14:54.848Z,0.33
2018-09-28T07:15:57.466Z,0.40
2018-09-28T07:17:00.035Z,0.30
2018-09-28T07:18:02.666Z,0.70
2018-09-28T07:19:05.378Z,0.37
2018-09-28T07:20:08.030Z,0.33
2018-09-28T07:21:10.586Z,0.40
2018-09-28T07:22:13.142Z,1.37
2018-09-28T07:23:15.709Z,0.47
2018-09-28T07:24:18.318Z,0.20
2018-09-28T07:25:20.870Z,1.23
2018-09-28T07:26:23.478Z,0.20
2018-09-28T07:27:26.038Z,0.50
2018-09-28T07:28:28.694Z,0.53
2018-09-28T07:29:31.250Z,0.20
2018-09-28T07:30:33.803Z,0.90
2018-09-28T07:31:36.386Z,0.30
2018-09-28T07:32:39.122Z,0.77
2018-09-28T07:33:41.686Z,1.17
2018-09-28T07:34:44.352Z,0.10
2018-09-28T07:35:46.984Z,0.40
2018-09-28T07:36:49.745Z,0.43
2018-09-28T07:37:52.282Z,0.40
2018-09-28T07:38:54.855Z,0.50
2018-09-28T07:39:57.443Z,0.40
2018-09-28T07:41:00.078Z,0.20
2018-09-28T07:42:02.691Z,0.27
2018-09-28T07:43:05.234Z,0.70
2018-09-28T07:44:07.891Z,0.30
2018-09-28T07:45:10.474Z,0.40
2018-09-28T07:46:13.181Z,1.40
2018-09-28T07:47:15.750Z,1.53
2018-09-28T07:48:18.323Z,1.57
2018-09-28T07:49:20.925Z,0.50
2018-09-28T07:50:23.510Z,0.20
2018-09-28T07:51:26.078Z,0.83
2018-09-28T07:52:28.662Z,1.00
2018-09-28T07:53:31.269Z,0.97
2018-09-28T07:54:33.846Z,0.37
2018-09-28T07:55:36.438Z,2.87
2018-09-28T07:56:39.005Z,1.13
2018-09-28T07:57:41.594Z,1.47
2018-09-28T07:58:44.188Z,0.80
2018-09-28T07:59:46.746Z,2.10
2018-09-28T08:00:49.322Z,2.43
2018-09-28T08:01:51.878Z,0.70
2018-09-28T08:02:54.438Z,1.57
2018-09-28T08:03:57.091Z,0.30
2018-09-28T08:04:59.594Z,0.10
2018-09-28T08:06:02.170Z,0.63
2018-09-28T08:07:04.795Z,0.60
2018-09-28T08:08:07.362Z,0.20
2018-09-28T08:09:10.646Z,0.50
2018-09-28T08:10:13.238Z,2.33
2018-09-28T08:11:15.821Z,0.97
2018-09-28T08:12:18.395Z,0.63
2018-09-28T08:13:21.264Z,0.20
2018-09-28T08:14:23.986Z,0.60
2018-09-28T08:15:27.391Z,0.27
2018-09-28T08:16:29.950Z,1.17
2018-09-28T08:17:32.537Z,0.23
2018-09-28T08:18:35.122Z,1.07
2018-09-28T08:19:37.693Z,0.30
2018-09-28T08:20:40.242Z,1.27
2018-09-28T08:21:42.846Z,0.63
2018-09-28T08:22:45.443Z,0.97
2018-09-28T08:23:48.042Z,0.43
2018-09-28T08:24:50.714Z,0.40
2018-09-28T08:25:53.300Z,0.40
2018-09-28T08:26:55.870Z,0.90
2018-09-28T08:27:58.430Z,0.30
2018-09-28T08:29:01.032Z,0.73
2018-09-28T08:30:03.666Z,1.13
2018-09-28T08:31:06.360Z,0.73
2018-09-28T08:32:08.922Z,0.43
2018-09-28T08:33:11.506Z,1.37
2018-09-28T08:34:14.111Z,0.50
2018-09-28T08:35:16.700Z,0.80
2018-09-28T08:36:19.310Z,0.80
2018-09-28T08:37:21.887Z,0.10
2018-09-28T08:38:24.490Z,1.23
2018-09-28T08:39:27.069Z,0.30
2018-09-28T08:40:29.662Z,0.90
2018-09-28T08:41:32.230Z,0.77
2018-09-28T08:42:34.823Z,0.27
2018-09-28T08:43:37.457Z,0.40
2018-09-28T08:44:40.064Z,0.67
2018-09-28T08:45:42.630Z,3.00
2018-09-28T08:46:45.234Z,0.97
2018-09-28T08:47:47.854Z,0.40
2018-09-28T08:48:50.426Z,0.27
2018-09-28T08:49:52.997Z,0.90
2018-09-28T08:50:55.564Z,0.43
2018-09-28T08:51:58.490Z,0.50
2018-09-28T08:53:01.051Z,1.40
2018-09-28T08:54:03.634Z,0.63
2018-09-28T08:55:06.235Z,0.60
2018-09-28T08:56:08.870Z,0.20
2018-09-28T08:57:11.429Z,0.50
2018-09-28T08:58:13.991Z,0.20
2018-09-28T08:59:16.570Z,1.03
2018-09-28T09:00:19.190Z,0.33
2018-09-28T09:01:21.753Z,0.60
2018-09-28T09:02:24.314Z,0.30
2018-09-28T09:03:26.890Z,1.00
2018-09-28T09:04:29.522Z,0.30
2018-09-28T09:05:32.106Z,0.50
2018-09-28T09:06:34.703Z,0.20
2018-09-28T09:07:37.271Z,0.50
2018-09-28T09:08:39.862Z,1.10
2018-09-28T09:09:42.474Z,0.50
2018-09-28T09:10:45.020Z,2.50
2018-09-28T09:11:47.596Z,1.67
2018-09-28T09:12:50.174Z,0.67
2018-09-28T09:13:52.738Z,1.17
2018-09-28T09:14:55.310Z,0.37
2018-09-28T09:15:57.904Z,2.20
2018-09-28T09:17:00.494Z,0.53
2018-09-28T09:18:03.153Z,0.47
2018-09-28T09:19:05.750Z,0.43
2018-09-28T09:20:08.404Z,0.63
2018-09-28T09:21:10.987Z,1.03
2018-09-28T09:22:13.578Z,1.70
2018-09-28T09:23:16.174Z,1.23
2018-09-28T09:24:18.758Z,0.57
2018-09-28T09:25:21.325Z,1.40
2018-09-28T09:26:24.149Z,0.57
2018-09-28T09:27:26.721Z,1.10
2018-09-28T09:28:29.484Z,1.13
2018-09-28T09:29:32.100Z,1.40
2018-09-28T09:30:34.666Z,0.70
2018-09-28T09:31:37.223Z,2.27
2018-09-28T09:32:39.802Z,0.97
2018-09-28T09:33:42.378Z,0.70
2018-09-28T09:34:44.942Z,0.77
2018-09-28T09:35:47.494Z,1.07
2018-09-28T09:36:50.078Z,0.77
2018-09-28T09:37:52.682Z,0.87
2018-09-28T09:38:55.246Z,1.67
2018-09-28T09:39:57.802Z,0.53
2018-09-28T09:41:00.410Z,0.20
2018-09-28T09:42:03.015Z,1.30
2018-09-28T09:43:05.606Z,0.73
2018-09-28T09:44:08.250Z,0.50
2018-09-28T09:45:10.826Z,0.27
2018-09-28T09:46:13.421Z,0.73
2018-09-28T09:47:15.974Z,1.17
2018-09-28T09:48:18.694Z,0.40
2018-09-28T09:49:21.334Z,0.93
2018-09-28T09:50:23.918Z,0.30
2018-09-28T09:51:26.487Z,2.63
2018-09-28T09:52:29.062Z,1.13
2018-09-28T09:53:31.665Z,0.20
2018-09-28T09:54:34.342Z,2.43
2018-09-28T09:55:36.894Z,3.70
2018-09-28T09:56:39.450Z,4.47
2018-09-28T09:57:42.071Z,4.80
2018-09-28T09:58:44.702Z,6.13
2018-09-28T09:59:47.310Z,5.37
2018-09-28T10:00:55.470Z,5.80
2018-09-28T10:02:03.630Z,4.13
2018-09-28T10:04:12.924Z,4.33
2018-09-28T10:05:15.499Z,3.20
2018-09-28T10:06:18.090Z,3.03
2018-09-28T10:07:20.689Z,2.47
2018-09-28T10:08:23.258Z,4.93
2018-09-28T10:09:25.825Z,7.67
2018-09-28T10:10:28.422Z,4.10
2018-09-28T10:11:31.046Z,3.93
2018-09-28T10:12:33.677Z,3.40
2018-09-28T10:13:36.214Z,3.40
2018-09-28T10:14:38.777Z,3.97
2018-09-28T10:15:41.362Z,3.67
2018-09-28T10:16:43.942Z,2.57
2018-09-28T10:17:46.510Z,4.40
2018-09-28T10:18:49.069Z,2.83
2018-09-28T10:19:51.691Z,2.57
2018-09-28T10:20:54.270Z,1.53
2018-09-28T10:21:57.102Z,2.47
2018-09-28T10:22:59.736Z,1.10
2018-09-28T10:24:02.324Z,1.27
2018-09-28T10:25:04.898Z,2.03
2018-09-28T10:26:07.504Z,1.03
2018-09-28T10:27:10.078Z,1.43
2018-09-28T10:28:12.742Z,2.30
2018-09-28T10:29:15.259Z,1.93
2018-09-28T10:30:17.846Z,0.83
2018-09-28T10:31:20.390Z,1.73
2018-09-28T10:32:22.970Z,1.13
2018-09-28T10:33:25.578Z,1.13
2018-09-28T10:34:28.189Z,1.73
2018-09-28T10:35:30.746Z,1.73
2018-09-28T10:36:33.371Z,1.70
2018-09-28T10:37:35.942Z,0.83
2018-09-28T10:38:38.511Z,0.47
2018-09-28T10:39:41.099Z,1.20
2018-09-28T10:40:43.815Z,0.60
2018-09-28T10:41:46.395Z,0.40
2018-09-28T10:42:48.962Z,1.20
2018-09-28T10:43:51.746Z,0.40
2018-09-28T10:44:54.331Z,0.60
2018-09-28T10:45:56.907Z,2.23
2018-09-28T10:46:59.463Z,0.43
2018-09-28T10:48:02.043Z,0.90
2018-09-28T10:49:04.666Z,0.83
2018-09-28T10:50:07.263Z,0.40
2018-09-28T10:51:09.849Z,1.33
2018-09-28T10:52:12.486Z,0.67
2018-09-28T10:53:15.227Z,1.23
2018-09-28T10:54:17.793Z,0.90
2018-09-28T10:55:20.370Z,0.53
2018-09-28T10:56:22.942Z,0.67
2018-09-28T10:57:25.647Z,1.27
2018-09-28T10:58:28.233Z,0.63
2018-09-28T10:59:30.791Z,2.57
2018-09-28T11:00:33.448Z,0.73
2018-09-28T11:01:35.966Z,1.27
2018-09-28T11:02:38.544Z,1.07
2018-09-28T11:03:41.144Z,0.67
2018-09-28T11:04:43.730Z,1.17
2018-09-28T11:05:46.310Z,0.60
2018-09-28T11:06:48.890Z,1.73
2018-09-28T11:07:51.455Z,1.83
2018-09-28T11:08:54.075Z,3.40
2018-09-28T11:09:56.698Z,1.60
2018-09-28T11:10:59.260Z,2.50
2018-09-28T11:12:01.854Z,1.90
2018-09-28T11:13:04.454Z,1.90
2018-09-28T11:14:07.270Z,1.70
2018-09-28T11:15:09.899Z,0.97
2018-09-28T11:16:12.421Z,1.80
2018-09-28T11:17:15.042Z,2.20
2018-09-28T11:18:17.578Z,1.80
2018-09-28T11:19:20.146Z,1.90
2018-09-28T11:20:22.708Z,0.90
2018-09-28T11:21:25.378Z,1.00
2018-09-28T11:22:27.894Z,0.77
2018-09-28T11:23:30.466Z,1.33
2018-09-28T11:24:33.261Z,2.63
2018-09-28T11:25:35.834Z,1.47
2018-09-28T11:26:38.412Z,1.70
2018-09-28T11:27:41.008Z,3.63
2018-09-28T11:28:43.581Z,3.13
2018-09-28T11:29:46.130Z,1.90
2018-09-28T11:30:48.858Z,2.37
2018-09-28T11:31:51.406Z,2.33
2018-09-28T11:32:53.972Z,5.97
2018-09-28T11:33:56.523Z,5.83
2018-09-28T11:34:59.108Z,3.77
2018-09-28T11:36:01.695Z,2.97
2018-09-28T11:37:04.254Z,2.27
2018-09-28T11:38:06.851Z,1.00
2018-09-28T11:39:09.458Z,2.93
2018-09-28T11:40:12.254Z,2.70
2018-09-28T11:41:14.810Z,2.70
2018-09-28T11:42:17.370Z,3.67
2018-09-28T11:43:20.118Z,1.97
2018-09-28T11:44:22.683Z,2.07
2018-09-28T11:45:25.348Z,1.30
2018-09-28T11:46:27.929Z,1.80
2018-09-28T11:47:30.494Z,1.73
2018-09-28T11:48:33.078Z,1.90
2018-09-28T11:49:35.659Z,1.93
2018-09-28T11:50:38.214Z,1.33
2018-09-28T11:51:40.954Z,2.20
2018-09-28T11:52:43.533Z,2.30
2018-09-28T11:53:46.086Z,2.93
2018-09-28T11:54:48.666Z,1.70
2018-09-28T11:55:51.266Z,0.97
2018-09-28T11:56:53.900Z,1.87
2018-09-28T11:57:56.459Z,0.70
2018-09-28T11:58:59.006Z,1.43
2018-09-28T12:00:01.620Z,1.03
2018-09-28T12:01:04.175Z,0.83
2018-09-28T12:02:07.062Z,2.43
2018-09-28T12:03:09.643Z,1.23
2018-09-28T12:04:12.267Z,0.70
2018-09-28T12:05:14.859Z,3.30
2018-09-28T12:06:17.486Z,2.30
2018-09-28T12:07:20.059Z,2.27
2018-09-28T12:08:22.634Z,1.67
2018-09-28T12:09:25.350Z,2.17
2018-09-28T12:10:28.747Z,3.13
2018-09-28T12:11:31.323Z,1.30
2018-09-28T12:12:33.955Z,1.47
2018-09-28T12:13:36.516Z,2.50
2018-09-28T12:14:39.182Z,0.80
2018-09-28T12:15:41.800Z,0.93
2018-09-28T12:16:44.395Z,1.37
2018-09-28T12:17:46.960Z,1.83
2018-09-28T12:18:49.700Z,0.40
2018-09-28T12:19:52.154Z,1.77
2018-09-28T12:20:54.774Z,0.57
2018-09-28T12:21:57.350Z,0.67
2018-09-28T12:22:59.922Z,3.83
2018-09-28T12:24:02.601Z,0.90
2018-09-28T12:25:05.259Z,3.27
2018-09-28T12:26:07.830Z,2.10
2018-09-28T12:27:10.433Z,0.83
2018-09-28T12:28:13.132Z,1.07
2018-09-28T12:29:15.690Z,0.70
2018-09-28T12:30:18.325Z,0.40
2018-09-28T12:31:20.877Z,0.77
2018-09-28T12:32:23.484Z,1.50
2018-09-28T12:33:26.196Z,2.17
2018-09-28T12:34:28.686Z,1.67
2018-09-28T12:35:31.306Z,2.90
2018-09-28T12:36:33.890Z,1.43
2018-09-28T12:37:36.490Z,1.17
2018-09-28T12:38:39.047Z,2.10
2018-09-28T12:39:41.661Z,1.07
2018-09-28T12:40:44.271Z,1.17
2018-09-28T12:41:46.878Z,2.03
2018-09-28T12:42:49.513Z,0.90
2018-09-28T12:43:52.043Z,1.27
2018-09-28T12:44:54.667Z,1.80
2018-09-28T12:45:57.230Z,1.70
2018-09-28T12:46:59.786Z,1.27
2018-09-28T12:48:02.402Z,1.53
2018-09-28T12:49:05.026Z,1.37
2018-09-28T12:50:07.709Z,0.40
2018-09-28T12:51:10.222Z,1.27
2018-09-28T12:52:12.794Z,1.30
2018-09-28T12:53:15.366Z,2.00
2018-09-28T12:54:18.034Z,2.00
2018-09-28T12:55:20.558Z,2.30
2018-09-28T12:56:23.430Z,1.87
2018-09-28T12:57:25.961Z,0.87
2018-09-28T12:58:28.555Z,2.87
2018-09-28T12:59:31.364Z,1.07
2018-09-28T13:00:33.954Z,1.93
2018-09-28T13:01:36.576Z,0.90
2018-09-28T13:02:39.170Z,1.93
2018-09-28T13:03:41.742Z,0.63
2018-09-28T13:04:44.318Z,1.73
2018-09-28T13:05:46.919Z,0.60
2018-09-28T13:06:50.085Z,1.80
2018-09-28T13:07:52.595Z,0.90
2018-09-28T13:08:55.174Z,0.83
2018-09-28T13:09:57.790Z,0.40
2018-09-28T13:11:00.378Z,1.70
2018-09-28T13:12:02.938Z,0.73
2018-09-28T13:13:05.582Z,0.93
2018-09-28T13:14:08.434Z,1.40
2018-09-28T13:15:11.179Z,1.57
2018-09-28T13:16:13.754Z,1.83
2018-09-28T13:17:16.330Z,1.93
2018-09-28T13:18:18.957Z,1.20
2018-09-28T13:19:21.518Z,0.83
2018-09-28T13:20:24.135Z,0.67
2018-09-28T13:21:26.702Z,1.17
2018-09-28T13:22:29.329Z,0.70
2018-09-28T13:23:31.943Z,0.60
2018-09-28T13:24:34.577Z,1.03
2018-09-28T13:25:37.131Z,1.43
2018-09-28T13:26:39.800Z,0.70
2018-09-28T13:27:42.341Z,0.50
2018-09-28T13:28:44.902Z,1.20
2018-09-28T13:29:47.462Z,0.83
2018-09-28T13:30:50.345Z,1.53
2018-09-28T13:31:52.904Z,1.00
2018-09-28T13:32:55.479Z,1.93
2018-09-28T13:33:58.273Z,2.10
2018-09-28T13:35:00.864Z,1.53
2018-09-28T13:36:03.530Z,1.80
2018-09-28T13:37:06.472Z,0.80
2018-09-28T13:38:09.108Z,0.70
2018-09-28T13:39:11.787Z,1.10
2018-09-28T13:40:14.314Z,1.53
2018-09-28T13:41:16.894Z,2.60
2018-09-28T13:42:19.584Z,0.70
2018-09-28T13:43:22.352Z,1.70
2018-09-28T13:44:25.019Z,1.70
2018-09-28T13:45:27.590Z,0.53
2018-09-28T13:46:30.132Z,1.00
2018-09-28T13:47:32.690Z,1.07
2018-09-28T13:48:35.290Z,0.50
2018-09-28T13:49:37.855Z,1.23
2018-09-28T13:50:40.477Z,2.40
2018-09-28T13:51:43.114Z,1.90
2018-09-28T13:52:45.725Z,1.13
2018-09-28T13:53:48.295Z,2.40
2018-09-28T13:54:50.909Z,0.93
2018-09-28T13:55:53.638Z,1.33